createdAt,value
2023-01-02T00:00:21.366Z,82.16
2023-01-02T00:01:53.609Z,81.34
2023-01-02T00:03:25.771Z,80.91
2023-01-02T00:04:58.027Z,81.25
2023-01-02T00:06:33.975Z,81.55
2023-01-02T00:08:06.138Z,81.62
2023-01-02T00:09:38.294Z,81.75
2023-01-02T00:11:10.281Z,81.71
2023-01-02T00:12:42.369Z,81.56
2023-01-02T00:14:14.545Z,81.69
2023-01-02T00:15:46.774Z,81.84
2023-01-02T00:17:19.799Z,81.78
2023-01-02T00:18:52.069Z,81.76
2023-01-02T00:20:24.080Z,81.94
2023-01-02T00:21:56.163Z,82.13
2023-01-02T00:23:28.122Z,81.85
2023-01-02T00:25:00.301Z,81.91
2023-01-02T00:26:32.273Z,81.95
2023-01-02T00:28:04.803Z,81.94
2023-01-02T00:29:37.021Z,81.96
2023-01-02T00:31:10.764Z,82.01
2023-01-02T00:34:15.742Z,82.03
2023-01-02T00:35:47.748Z,81.97
2023-01-02T00:37:19.936Z,81.99
2023-01-02T00:38:55.642Z,82.16
2023-01-02T00:40:28.088Z,82.16
2023-01-02T00:42:00.115Z,82.24
2023-01-02T00:43:32.170Z,82.20
2023-01-02T00:45:04.575Z,82.21
2023-01-02T00:46:36.548Z,82.25
2023-01-02T00:48:08.605Z,81.89
2023-01-02T00:49:40.679Z,82.33
2023-01-02T00:51:12.732Z,82.19
2023-01-02T00:52:44.817Z,82.08
2023-01-02T00:54:16.915Z,82.17
2023-01-02T00:55:48.903Z,82.07
2023-01-02T00:57:20.840Z,82.28
2023-01-02T00:58:52.905Z,82.30
2023-01-02T01:00:25.023Z,82.27
2023-01-02T01:01:57.142Z,82.04
2023-01-02T01:03:29.434Z,81.29
2023-01-02T01:05:01.368Z,81.16
2023-01-02T01:06:35.010Z,81.30
2023-01-02T01:08:07.092Z,80.99
2023-01-02T01:09:39.073Z,81.65
2023-01-02T01:11:13.523Z,81.62
2023-01-02T01:12:45.574Z,82.03
2023-01-02T01:14:17.652Z,82.26
2023-01-02T01:15:49.738Z,82.31
2023-01-02T01:17:21.815Z,82.45
2023-01-02T01:18:57.419Z,82.61
2023-01-02T01:20:29.725Z,82.69
2023-01-02T01:22:01.853Z,82.49
2023-01-02T01:23:33.870Z,82.47
2023-01-02T01:25:06.228Z,82.56
2023-01-02T01:26:38.260Z,82.57
2023-01-02T01:28:10.272Z,82.15
2023-01-02T01:29:42.270Z,81.88
2023-01-02T01:31:16.283Z,81.31
2023-01-02T01:32:48.573Z,81.40
2023-01-02T01:34:20.540Z,81.36
2023-01-02T01:35:52.563Z,81.59
2023-01-02T01:37:24.646Z,82.00
2023-01-02T01:38:56.694Z,82.03
2023-01-02T01:40:28.764Z,82.28
2023-01-02T01:42:01.598Z,82.43
2023-01-02T01:43:50.547Z,82.60
2023-01-02T01:45:22.488Z,83.00
2023-01-02T01:46:54.630Z,82.99
2023-01-02T01:48:26.679Z,83.00
2023-01-02T01:50:20.688Z,83.28
2023-01-02T01:52:05.374Z,83.22
2023-01-02T01:53:38.149Z,83.29
2023-01-02T01:55:18.720Z,83.00
2023-01-02T01:56:58.484Z,82.72
2023-01-02T01:58:33.308Z,82.79
2023-01-02T02:00:06.087Z,82.58
2023-01-02T02:01:39.882Z,82.95
2023-01-02T02:03:15.318Z,82.92
2023-01-02T02:04:47.407Z,83.00
2023-01-02T02:06:20.213Z,83.13
2023-01-02T02:08:09.077Z,82.93
2023-01-02T02:09:45.016Z,82.86
2023-01-02T02:11:17.996Z,82.61
2023-01-02T02:12:49.951Z,82.44
2023-01-02T02:14:22.036Z,82.43
2023-01-02T02:15:59.320Z,82.63
2023-01-02T02:17:49.836Z,82.49
2023-01-02T02:19:49.499Z,82.40
2023-01-02T02:21:33.159Z,82.53
2023-01-02T02:23:23.924Z,82.63
2023-01-02T02:25:26.491Z,82.84
2023-01-02T02:27:35.796Z,82.84
2023-01-02T02:29:35.006Z,82.66
2023-01-02T02:31:36.458Z,82.51
2023-01-02T02:33:56.607Z,82.46
2023-01-02T02:35:50.228Z,82.24
2023-01-02T02:37:43.232Z,82.16
2023-01-02T02:39:25.264Z,81.91
2023-01-02T02:41:03.314Z,82.23
2023-01-02T02:43:01.163Z,82.04
2023-01-02T02:45:07.527Z,82.00
2023-01-02T02:47:08.329Z,82.12
2023-01-02T02:48:59.663Z,82.28
2023-01-02T02:50:44.820Z,82.54
2023-01-02T02:52:35.113Z,82.45
2023-01-02T02:54:13.898Z,82.97
2023-01-02T02:55:48.617Z,83.13
2023-01-02T02:57:20.951Z,83.18
2023-01-02T02:58:53.407Z,83.00
2023-01-02T03:00:28.210Z,82.93
2023-01-02T03:02:00.428Z,82.81
2023-01-02T03:03:32.835Z,82.75
2023-01-02T03:05:07.484Z,83.13
2023-01-02T03:08:17.527Z,82.99
2023-01-02T03:10:20.114Z,82.71
2023-01-02T03:11:52.053Z,82.27
2023-01-02T03:13:40.596Z,82.43
2023-01-02T03:15:26.265Z,82.56
2023-01-02T03:17:07.822Z,82.55
2023-01-02T03:18:54.696Z,82.59
2023-01-02T03:20:30.312Z,82.65
2023-01-02T03:22:08.750Z,82.79
2023-01-02T03:23:48.924Z,82.82
2023-01-02T03:25:21.716Z,83.04
2023-01-02T03:26:59.038Z,82.74
2023-01-02T03:28:31.956Z,82.97
2023-01-02T03:30:09.996Z,82.75
2023-01-02T03:31:42.861Z,83.03
2023-01-02T03:33:17.666Z,83.04
2023-01-02T03:34:49.977Z,82.95
2023-01-02T03:36:28.136Z,82.91
2023-01-02T03:38:01.091Z,83.07
2023-01-02T03:39:35.789Z,83.09
2023-01-02T03:41:12.296Z,83.04
2023-01-02T03:42:55.836Z,82.39
2023-01-02T03:44:49.071Z,82.20
2023-01-02T03:46:33.244Z,82.47
2023-01-02T03:48:43.345Z,82.55
2023-01-02T03:50:28.664Z,82.56
2023-01-02T03:52:01.017Z,82.73
2023-01-02T03:53:34.182Z,82.61
2023-01-02T03:55:06.721Z,82.81
2023-01-02T03:56:53.953Z,82.88
2023-01-02T03:58:52.198Z,83.03
2023-01-02T04:00:29.313Z,82.82
2023-01-02T04:02:10.310Z,83.09
2023-01-02T04:03:48.107Z,83.41
2023-01-02T04:05:26.012Z,83.57
2023-01-02T04:07:02.009Z,83.67
2023-01-02T04:08:42.566Z,83.41
2023-01-02T04:12:08.309Z,83.38
2023-01-02T04:13:43.048Z,83.35
2023-01-02T04:15:17.732Z,83.64
2023-01-02T04:16:51.466Z,83.53
2023-01-02T04:18:30.622Z,82.90
2023-01-02T04:20:05.867Z,82.54
2023-01-02T04:21:39.303Z,82.38
2023-01-02T04:23:14.636Z,82.26
2023-01-02T04:24:51.223Z,82.76
2023-01-02T04:26:30.035Z,83.09
2023-01-02T04:28:08.811Z,83.25
2023-01-02T04:29:41.466Z,83.39
2023-01-02T04:31:22.214Z,83.44
2023-01-02T04:32:55.215Z,83.46
2023-01-02T04:34:29.158Z,83.06
2023-01-02T04:36:08.795Z,83.21
2023-01-02T04:37:42.478Z,83.26
2023-01-02T04:39:14.489Z,83.40
2023-01-02T04:42:24.560Z,83.44
2023-01-02T04:43:57.208Z,83.99
2023-01-02T04:45:29.180Z,83.99
2023-01-02T04:47:01.181Z,84.29
2023-01-02T04:48:36.348Z,84.58
2023-01-02T04:50:10.821Z,84.50
2023-01-02T04:51:42.787Z,84.26
2023-01-02T04:53:15.313Z,84.56
2023-01-02T04:54:50.475Z,84.75
2023-01-02T04:56:22.743Z,84.62
2023-01-02T04:57:54.681Z,84.45
2023-01-02T04:59:26.731Z,84.43
2023-01-02T05:00:59.092Z,84.62
2023-01-02T05:02:35.837Z,84.65
2023-01-02T05:04:07.932Z,84.47
2023-01-02T05:05:42.952Z,84.38
2023-01-02T05:07:15.031Z,84.33
2023-01-02T05:08:47.269Z,84.38
2023-01-02T05:10:19.461Z,84.33
2023-01-02T05:11:51.994Z,83.99
2023-01-02T05:13:24.132Z,83.71
2023-01-02T05:14:56.152Z,83.59
2023-01-02T05:16:28.280Z,83.75
2023-01-02T05:18:00.403Z,83.91
2023-01-02T05:19:32.516Z,83.93
2023-01-02T05:21:32.363Z,83.85
2023-01-02T05:23:23.038Z,83.83
2023-01-02T05:24:55.065Z,84.01
2023-01-02T05:26:27.335Z,84.14
2023-01-02T05:27:59.259Z,83.95
2023-01-02T05:29:31.511Z,83.81
2023-01-02T05:31:03.647Z,83.71
2023-01-02T05:32:35.815Z,83.87
2023-01-02T05:34:07.905Z,83.67
2023-01-02T05:35:43.208Z,83.65
2023-01-02T05:37:15.229Z,84.12
2023-01-02T05:38:47.336Z,84.16
2023-01-02T05:41:54.265Z,84.13
2023-01-02T05:43:26.328Z,83.86
2023-01-02T05:44:59.388Z,84.30
2023-01-02T05:46:31.509Z,84.28
2023-01-02T05:48:03.757Z,84.15
2023-01-02T05:49:35.834Z,84.12
2023-01-02T05:51:09.849Z,84.29
2023-01-02T05:52:45.493Z,83.89
2023-01-02T05:54:18.349Z,83.68
2023-01-02T05:55:50.372Z,84.00
2023-01-02T05:57:24.877Z,83.91
2023-01-02T05:58:57.642Z,83.97
2023-01-02T06:00:29.568Z,83.88
2023-01-02T06:02:01.675Z,83.90
2023-01-02T06:03:33.870Z,83.90
2023-01-02T06:05:06.521Z,84.08
2023-01-02T06:06:39.892Z,83.97
2023-01-02T06:08:12.261Z,83.86
2023-01-02T06:09:44.519Z,83.60
2023-01-02T06:11:16.712Z,83.50
2023-01-02T06:12:48.769Z,83.62
2023-01-02T06:15:55.120Z,83.71
2023-01-02T06:17:27.446Z,84.01
2023-01-02T06:18:59.473Z,84.15
2023-01-02T06:20:31.560Z,84.16
2023-01-02T06:22:03.631Z,84.11
2023-01-02T06:23:35.985Z,83.96
2023-01-02T06:25:08.525Z,83.93
2023-01-02T06:26:40.502Z,83.74
2023-01-02T06:28:12.493Z,83.56
2023-01-02T06:29:44.511Z,83.78
2023-01-02T06:31:18.181Z,83.44
2023-01-02T06:32:50.298Z,83.01
2023-01-02T06:34:22.327Z,83.09
2023-01-02T06:36:04.104Z,82.99
2023-01-02T06:37:36.222Z,83.28
2023-01-02T06:39:08.242Z,83.55
2023-01-02T06:40:40.364Z,84.06
2023-01-02T06:42:12.275Z,84.52
2023-01-02T06:43:49.073Z,84.71
2023-01-02T06:45:21.125Z,84.90
2023-01-02T06:46:53.152Z,85.18
2023-01-02T06:48:26.563Z,85.04
2023-01-02T06:49:58.695Z,85.12
2023-01-02T06:51:30.805Z,85.41
2023-01-02T06:53:03.094Z,85.41
2023-01-02T06:54:35.132Z,85.35
2023-01-02T06:56:08.119Z,85.49
2023-01-02T06:57:40.088Z,85.32
2023-01-02T06:59:12.351Z,85.15
2023-01-02T07:00:44.451Z,85.25
2023-01-02T07:02:16.742Z,85.34
2023-01-02T07:03:49.517Z,85.44
2023-01-02T07:05:24.715Z,85.70
2023-01-02T07:06:57.036Z,85.79
2023-01-02T07:08:29.938Z,86.02
2023-01-02T07:10:01.943Z,86.22
2023-01-02T07:11:33.970Z,86.14
2023-01-02T07:13:06.044Z,86.45
2023-01-02T07:14:38.079Z,86.54
2023-01-02T07:16:12.751Z,86.35
2023-01-02T07:17:47.967Z,86.64
2023-01-02T07:19:19.969Z,86.37
2023-01-02T07:20:55.348Z,86.50
2023-01-02T07:22:27.432Z,86.67
2023-01-02T07:23:59.505Z,86.91
2023-01-02T07:25:31.513Z,87.16
2023-01-02T07:27:06.303Z,87.47
2023-01-02T07:28:39.266Z,87.29
2023-01-02T07:30:12.165Z,87.23
2023-01-02T07:31:44.261Z,87.11
2023-01-02T07:33:16.496Z,87.19
2023-01-02T07:34:48.470Z,87.17
2023-01-02T07:36:22.532Z,87.15
2023-01-02T07:37:54.600Z,87.04
2023-01-02T07:39:27.529Z,87.70
2023-01-02T07:40:59.660Z,88.09
2023-01-02T07:42:31.870Z,87.80
2023-01-02T07:44:03.979Z,88.23
2023-01-02T07:45:36.115Z,88.20
2023-01-02T07:47:08.252Z,88.24
2023-01-02T07:48:40.631Z,88.11
2023-01-02T07:50:12.671Z,87.54
2023-01-02T07:51:44.760Z,87.52
2023-01-02T07:53:16.735Z,87.42
2023-01-02T07:54:48.823Z,87.14
2023-01-02T07:56:20.980Z,87.09
2023-01-02T07:57:53.021Z,87.18
2023-01-02T07:59:25.057Z,87.03
2023-01-02T08:01:04.911Z,86.71
2023-01-02T08:02:37.710Z,86.48
2023-01-02T08:04:09.848Z,86.11
2023-01-02T08:05:41.939Z,85.83
2023-01-02T08:07:13.977Z,85.92
2023-01-02T08:08:46.375Z,85.49
2023-01-02T08:10:18.469Z,85.37
2023-01-02T08:11:50.536Z,85.32
2023-01-02T08:13:22.533Z,85.06
2023-01-02T08:14:54.611Z,85.10
2023-01-02T08:16:26.776Z,84.82
2023-01-02T08:19:31.663Z,84.90
2023-01-02T08:21:04.613Z,84.84
2023-01-02T08:22:36.934Z,84.91
2023-01-02T08:24:09.210Z,84.84
2023-01-02T08:25:41.275Z,85.11
2023-01-02T08:27:13.296Z,85.24
2023-01-02T08:28:45.440Z,85.00
2023-01-02T08:30:17.812Z,84.80
2023-01-02T08:31:49.801Z,84.52
2023-01-02T08:33:22.176Z,84.44
2023-01-02T08:34:54.220Z,83.85
2023-01-02T08:36:26.429Z,83.82
2023-01-02T08:37:58.483Z,83.76
2023-01-02T08:39:30.623Z,83.78
2023-01-02T08:41:02.790Z,83.54
2023-01-02T08:42:34.870Z,83.76
2023-01-02T08:44:07.863Z,83.12
2023-01-02T08:45:39.887Z,82.93
2023-01-02T08:47:12.005Z,82.63
2023-01-02T08:48:44.102Z,82.62
2023-01-02T08:50:16.281Z,82.17
2023-01-02T08:51:48.476Z,82.26
2023-01-02T08:53:20.509Z,82.12
2023-01-02T08:54:52.592Z,81.72
2023-01-02T08:56:28.471Z,81.59
2023-01-02T08:58:00.597Z,81.07
2023-01-02T08:59:32.646Z,80.79
2023-01-02T09:01:04.919Z,80.68
2023-01-02T09:02:37.334Z,80.32
2023-01-02T09:04:12.937Z,79.79
2023-01-02T09:05:45.220Z,79.39
2023-01-02T09:07:17.432Z,78.70
2023-01-02T09:08:49.723Z,78.42
2023-01-02T09:10:21.783Z,78.06
2023-01-02T09:11:53.818Z,77.61
2023-01-02T09:13:25.939Z,77.41
2023-01-02T09:14:57.980Z,77.24
2023-01-02T09:16:30.619Z,77.42
2023-01-02T09:18:02.674Z,77.06
2023-01-02T09:19:34.811Z,76.73
2023-01-02T09:22:45.101Z,76.45
2023-01-02T09:24:17.276Z,75.66
2023-01-02T09:25:49.345Z,75.49
2023-01-02T09:27:21.462Z,75.27
2023-01-02T09:28:53.638Z,74.86
2023-01-02T09:30:25.753Z,74.40
2023-01-02T09:31:57.799Z,73.86
2023-01-02T09:33:29.869Z,73.97
2023-01-02T09:35:01.908Z,73.72
2023-01-02T09:36:34.043Z,73.74
2023-01-02T09:38:06.136Z,73.77
2023-01-02T09:39:38.149Z,73.50
2023-01-02T09:41:16.032Z,73.20
2023-01-02T09:42:48.751Z,73.32
2023-01-02T09:44:23.487Z,73.17
2023-01-02T09:45:59.269Z,72.87
2023-01-02T09:47:32.210Z,72.63
2023-01-02T09:49:04.473Z,72.79
2023-01-02T09:52:36.367Z,71.46
2023-01-02T09:54:17.501Z,71.48
2023-01-02T09:56:06.906Z,71.70
2023-01-02T09:57:45.354Z,71.71
2023-01-02T10:00:10.542Z,70.68
2023-01-02T10:01:53.551Z,70.37
2023-01-02T10:03:45.554Z,69.75
2023-01-02T10:05:50.368Z,69.84
2023-01-02T10:07:28.125Z,70.19
2023-01-02T10:09:30.932Z,69.69
2023-01-02T10:11:24.088Z,69.23
2023-01-02T10:13:44.290Z,68.56
2023-01-02T10:15:23.462Z,68.85
2023-01-02T10:16:57.141Z,68.83
2023-01-02T10:18:40.268Z,68.33
2023-01-02T10:20:19.026Z,67.53
2023-01-02T10:21:59.005Z,67.28
2023-01-02T10:23:37.048Z,66.32
2023-01-02T10:26:57.758Z,66.37
2023-01-02T10:28:42.593Z,65.90
2023-01-02T10:30:21.302Z,65.15
2023-01-02T10:31:59.679Z,64.65
2023-01-02T10:33:36.541Z,64.25
2023-01-02T10:35:08.588Z,63.75
2023-01-02T10:36:42.398Z,63.53
2023-01-02T10:38:17.352Z,63.09
2023-01-02T10:39:50.477Z,62.53
2023-01-02T10:41:22.630Z,62.31
2023-01-02T10:42:59.788Z,59.42
2023-01-02T10:44:34.837Z,59.38
2023-01-02T10:46:07.024Z,59.57
2023-01-02T10:47:39.583Z,60.74
2023-01-02T10:49:12.682Z,60.10
2023-01-02T10:50:51.784Z,59.74
2023-01-02T10:52:34.221Z,59.14
2023-01-02T10:54:08.561Z,58.58
2023-01-02T10:55:43.035Z,57.95
2023-01-02T10:57:21.069Z,57.89
2023-01-02T10:58:53.572Z,58.09
2023-01-02T11:01:59.804Z,59.04
2023-01-02T11:03:32.154Z,58.67
2023-01-02T11:05:06.134Z,58.03
2023-01-02T11:07:01.398Z,56.62
2023-01-02T11:08:38.829Z,56.00
2023-01-02T11:10:24.305Z,55.64
2023-01-02T11:12:00.058Z,55.37
2023-01-02T11:13:48.945Z,55.79
2023-01-02T11:15:29.133Z,55.21
2023-01-02T11:17:17.922Z,53.42
2023-01-02T11:18:52.342Z,53.18
2023-01-02T11:20:29.128Z,54.13
2023-01-02T11:22:01.700Z,54.19
2023-01-02T11:23:39.154Z,50.88
2023-01-02T11:25:23.614Z,51.33
2023-01-02T11:26:56.084Z,52.46
2023-01-02T11:28:29.431Z,52.39
2023-01-02T11:30:01.595Z,50.25
2023-01-02T11:31:33.987Z,48.80
2023-01-02T11:33:14.909Z,49.92
2023-01-02T11:34:56.515Z,49.53
2023-01-02T11:36:28.655Z,47.40
2023-01-02T11:38:02.061Z,48.26
2023-01-02T11:39:34.450Z,47.00
2023-01-02T11:41:06.557Z,50.29
2023-01-02T11:43:02.997Z,51.86
2023-01-02T11:44:42.760Z,52.48
2023-01-02T11:46:28.650Z,52.12
2023-01-02T11:48:05.357Z,52.43
2023-01-02T11:49:43.913Z,53.57
2023-01-02T11:51:17.790Z,53.10
2023-01-02T11:53:00.200Z,52.42
2023-01-02T11:55:01.425Z,52.59
2023-01-02T11:56:38.060Z,53.12
2023-01-02T11:58:18.127Z,52.93
2023-01-02T11:59:52.364Z,52.81
2023-01-02T12:01:30.727Z,51.93
2023-01-02T12:03:07.147Z,51.33
2023-01-02T12:04:39.337Z,51.37
2023-01-02T12:06:16.965Z,52.17
2023-01-02T12:07:56.038Z,53.00
2023-01-02T12:09:30.837Z,52.33
2023-01-02T12:11:10.071Z,51.49
2023-01-02T12:12:57.062Z,52.05
2023-01-02T12:14:59.632Z,52.66
2023-01-02T12:16:56.177Z,51.32
2023-01-02T12:18:49.992Z,51.38
2023-01-02T12:20:33.924Z,52.00
2023-01-02T12:22:18.323Z,51.60
2023-01-02T12:24:01.149Z,50.75
2023-01-02T12:25:51.239Z,50.81
2023-01-02T12:27:27.344Z,50.97
2023-01-02T12:29:46.519Z,51.19
2023-01-02T12:31:29.849Z,50.16
2023-01-02T12:33:14.856Z,51.56
2023-01-02T12:34:55.146Z,50.51
2023-01-02T12:36:27.349Z,50.45
2023-01-02T12:38:00.215Z,50.67
2023-01-02T12:39:35.324Z,50.16
2023-01-02T12:41:15.881Z,49.83
2023-01-02T12:43:10.239Z,50.53
2023-01-02T12:44:44.935Z,50.55
2023-01-02T12:46:32.586Z,50.41
2023-01-02T12:48:29.042Z,49.93
2023-01-02T12:50:10.149Z,49.92
2023-01-02T12:51:56.001Z,49.70
2023-01-02T12:54:18.614Z,49.87
2023-01-02T12:55:44.639Z,49.44
2023-01-02T12:57:23.054Z,49.02
2023-01-02T12:59:28.931Z,49.67
2023-01-02T13:01:22.436Z,49.63
2023-01-02T13:03:03.323Z,49.23
2023-01-02T13:04:45.814Z,49.84
2023-01-02T13:06:44.397Z,49.94
2023-01-02T13:08:25.535Z,48.92
2023-01-02T13:09:58.825Z,48.74
2023-01-02T13:11:32.059Z,48.86
2023-01-02T13:13:04.185Z,49.21
2023-01-02T13:14:47.870Z,49.32
2023-01-02T13:16:25.252Z,49.14
2023-01-02T13:18:03.817Z,49.07
2023-01-02T13:19:43.908Z,49.03
2023-01-02T13:21:39.845Z,49.14
2023-01-02T13:23:17.848Z,49.57
2023-01-02T13:24:51.123Z,49.10
2023-01-02T13:26:25.437Z,49.50
2023-01-02T13:27:58.924Z,50.17
2023-01-02T13:29:45.028Z,50.87
2023-01-02T13:33:38.954Z,51.38
2023-01-02T13:35:11.257Z,51.50
2023-01-02T13:36:48.162Z,51.88
2023-01-02T13:38:22.179Z,52.55
2023-01-02T13:39:56.191Z,52.84
2023-01-02T13:41:30.392Z,52.60
2023-01-02T13:43:12.917Z,53.25
2023-01-02T13:44:51.916Z,52.81
2023-01-02T13:47:03.380Z,53.13
2023-01-02T13:49:00.492Z,53.39
2023-01-02T13:50:37.449Z,53.09
2023-01-02T13:52:17.477Z,52.99
2023-01-02T13:53:53.256Z,52.98
2023-01-02T13:55:31.832Z,52.96
2023-01-02T13:57:26.793Z,52.87
2023-01-02T13:59:41.693Z,53.08
2023-01-02T14:01:26.344Z,53.09
2023-01-02T14:03:16.985Z,53.04
2023-01-02T14:04:49.411Z,53.08
2023-01-02T14:06:31.628Z,53.31
2023-01-02T14:08:24.239Z,53.26
2023-01-02T14:10:16.251Z,53.16
2023-01-02T14:11:57.374Z,53.50
2023-01-02T14:13:42.228Z,53.71
2023-01-02T14:15:19.259Z,53.72
2023-01-02T14:17:08.566Z,54.03
2023-01-02T14:18:46.090Z,54.27
2023-01-02T14:20:20.421Z,54.40
2023-01-02T14:21:52.375Z,54.49
2023-01-02T14:23:30.327Z,54.63
2023-01-02T14:25:04.108Z,55.05
2023-01-02T14:26:38.833Z,55.05
2023-01-02T14:28:31.431Z,55.25
2023-01-02T14:30:15.052Z,55.39
2023-01-02T14:31:47.798Z,55.58
2023-01-02T14:33:32.317Z,55.88
2023-01-02T14:35:13.247Z,55.97
2023-01-02T14:36:47.686Z,56.39
2023-01-02T14:38:24.785Z,56.81
2023-01-02T14:39:57.004Z,56.80
2023-01-02T14:42:10.982Z,56.99
2023-01-02T14:43:43.681Z,57.35
2023-01-02T14:45:20.487Z,57.54
2023-01-02T14:46:52.924Z,58.00
2023-01-02T14:48:32.761Z,58.30
2023-01-02T14:50:11.430Z,58.52
2023-01-02T14:52:06.188Z,58.90
2023-01-02T14:54:07.404Z,58.97
2023-01-02T14:55:42.218Z,59.28
2023-01-02T14:57:38.205Z,59.62
2023-01-02T14:59:41.476Z,59.82
2023-01-02T15:01:42.876Z,60.05
2023-01-02T15:03:31.044Z,59.91
2023-01-02T15:05:07.827Z,60.64
2023-01-02T15:06:45.460Z,60.80
2023-01-02T15:08:21.828Z,61.03
2023-01-02T15:09:57.974Z,61.20
2023-01-02T15:11:48.408Z,61.26
2023-01-02T15:13:22.338Z,61.73
2023-01-02T15:14:54.402Z,61.50
2023-01-02T15:16:26.658Z,61.97
2023-01-02T15:18:03.274Z,62.04
2023-01-02T15:19:35.850Z,62.44
2023-01-02T15:21:10.360Z,63.00
2023-01-02T15:22:43.664Z,62.86
2023-01-02T15:24:27.540Z,62.68
2023-01-02T15:26:31.095Z,63.20
2023-01-02T15:27:54.832Z,63.40
2023-01-02T15:29:28.792Z,63.62
2023-01-02T15:31:11.295Z,63.92
2023-01-02T15:32:48.994Z,63.82
2023-01-02T15:34:32.539Z,64.03
2023-01-02T15:36:37.572Z,64.46
2023-01-02T15:38:17.912Z,65.01
2023-01-02T15:39:53.981Z,65.61
2023-01-02T15:41:26.052Z,65.44
2023-01-02T15:43:24.711Z,65.09
2023-01-02T15:45:15.443Z,65.62
2023-01-02T15:46:47.562Z,66.23
2023-01-02T15:49:52.564Z,66.62
2023-01-02T15:51:39.577Z,66.97
2023-01-02T15:53:34.872Z,66.99
2023-01-02T15:55:16.092Z,67.25
2023-01-02T15:56:48.098Z,67.18
2023-01-02T15:58:25.260Z,67.48
2023-01-02T15:59:57.364Z,67.70
2023-01-02T16:01:29.601Z,67.46
2023-01-02T16:03:01.984Z,67.98
2023-01-02T16:04:34.719Z,68.08
2023-01-02T16:06:13.036Z,68.35
2023-01-02T16:07:56.148Z,68.14
2023-01-02T16:09:30.800Z,68.42
2023-01-02T16:11:05.261Z,68.58
2023-01-02T16:12:37.451Z,68.53
2023-01-02T16:14:20.229Z,68.37
2023-01-02T16:16:16.661Z,68.94
2023-01-02T16:17:47.386Z,69.02
2023-01-02T16:19:23.659Z,68.88
2023-01-02T16:20:59.187Z,68.99
2023-01-02T16:23:07.563Z,69.15
2023-01-02T16:25:13.450Z,69.41
2023-01-02T16:26:46.315Z,69.38
2023-01-02T16:28:35.571Z,69.71
2023-01-02T16:30:28.633Z,69.93
2023-01-02T16:32:02.312Z,70.17
2023-01-02T16:33:38.189Z,69.87
2023-01-02T16:35:23.457Z,69.68
2023-01-02T16:37:20.477Z,69.91
2023-01-02T16:38:59.205Z,70.18
2023-01-02T16:41:01.177Z,70.70
2023-01-02T16:42:37.704Z,70.56
2023-01-02T16:44:15.932Z,70.62
2023-01-02T16:45:49.307Z,70.89
2023-01-02T16:47:25.567Z,70.85
2023-01-02T16:49:04.674Z,71.12
2023-01-02T16:50:47.632Z,71.16
2023-01-02T16:53:53.697Z,71.39
2023-01-02T16:55:25.838Z,71.55
2023-01-02T16:56:57.864Z,71.55
2023-01-02T16:58:30.258Z,71.65
2023-01-02T17:00:02.567Z,71.98
2023-01-02T17:01:34.833Z,72.41
2023-01-02T17:03:07.058Z,72.49
2023-01-02T17:04:39.058Z,72.53
2023-01-02T17:06:13.958Z,72.65
2023-01-02T17:07:46.436Z,72.79
2023-01-02T17:09:18.704Z,72.90
2023-01-02T17:10:50.805Z,72.75
2023-01-02T17:12:22.931Z,72.94
2023-01-02T17:13:54.949Z,73.10
2023-01-02T17:15:26.994Z,73.26
2023-01-02T17:17:00.176Z,73.31
2023-01-02T17:18:32.142Z,73.40
2023-01-02T17:20:04.550Z,73.41
2023-01-02T17:21:36.513Z,73.86
2023-01-02T17:23:08.733Z,73.38
2023-01-02T17:24:40.762Z,73.16
2023-01-02T17:26:13.338Z,72.80
2023-01-02T17:27:45.866Z,71.97
2023-01-02T17:29:17.909Z,72.22
2023-01-02T17:30:50.070Z,72.35
2023-01-02T17:32:22.154Z,72.32
2023-01-02T17:33:54.192Z,72.69
2023-01-02T17:35:26.261Z,72.61
2023-01-02T17:36:58.490Z,72.93
2023-01-02T17:38:30.642Z,73.00
2023-01-02T17:40:02.831Z,73.20
2023-01-02T17:41:34.964Z,73.34
2023-01-02T17:43:07.022Z,73.81
2023-01-02T17:44:39.182Z,73.74
2023-01-02T17:46:38.784Z,73.44
2023-01-02T17:48:10.571Z,74.08
2023-01-02T17:49:43.799Z,74.14
2023-01-02T17:51:15.857Z,74.56
2023-01-02T17:52:47.879Z,74.11
2023-01-02T17:54:20.178Z,73.86
2023-01-02T17:56:21.402Z,74.09
2023-01-02T17:57:45.881Z,73.83
2023-01-02T17:59:20.574Z,73.93
2023-01-02T18:00:53.282Z,73.67
2023-01-02T18:02:25.447Z,73.62
2023-01-02T18:03:57.718Z,73.58
2023-01-02T18:05:29.842Z,73.99
2023-01-02T18:07:02.194Z,74.45
2023-01-02T18:08:34.567Z,74.28
2023-01-02T18:10:08.602Z,74.39
2023-01-02T18:11:42.069Z,74.26
2023-01-02T18:13:14.145Z,74.47
2023-01-02T18:14:46.748Z,74.98
2023-01-02T18:16:23.142Z,75.16
2023-01-02T18:17:55.691Z,75.38
2023-01-02T18:19:33.520Z,75.70
2023-01-02T18:21:13.370Z,75.87
2023-01-02T18:22:50.157Z,76.41
2023-01-02T18:24:31.450Z,76.88
2023-01-02T18:26:09.704Z,76.90
2023-01-02T18:27:41.731Z,77.18
2023-01-02T18:29:23.792Z,77.45
2023-01-02T18:30:57.646Z,77.60
2023-01-02T18:32:36.223Z,77.15
2023-01-02T18:34:45.849Z,77.15
2023-01-02T18:36:21.813Z,77.46
2023-01-02T18:37:54.430Z,77.08
2023-01-02T18:39:32.141Z,76.59
2023-01-02T18:41:23.812Z,76.58
2023-01-02T18:43:14.374Z,77.06
2023-01-02T18:44:48.471Z,77.54
2023-01-02T18:47:03.027Z,77.60
2023-01-02T18:48:27.032Z,77.97
2023-01-02T18:50:19.841Z,77.64
2023-01-02T18:52:15.809Z,77.38
2023-01-02T18:53:54.364Z,77.59
2023-01-02T18:57:01.686Z,77.34
2023-01-02T18:58:44.188Z,77.22
2023-01-02T19:00:21.325Z,77.38
2023-01-02T19:01:55.596Z,77.54
2023-01-02T19:03:28.682Z,77.61
2023-01-02T19:05:00.690Z,77.50
2023-01-02T19:06:39.207Z,77.85
2023-01-02T19:08:19.866Z,77.88
2023-01-02T19:10:12.601Z,77.60
2023-01-02T19:12:03.653Z,77.68
2023-01-02T19:13:36.023Z,77.98
2023-01-02T19:15:31.853Z,78.14
2023-01-02T19:17:20.099Z,78.37
2023-01-02T19:18:55.251Z,78.14
2023-01-02T19:20:27.287Z,78.00
2023-01-02T19:22:00.238Z,78.43
2023-01-02T19:23:52.993Z,78.39
2023-01-02T19:25:26.648Z,78.48
2023-01-02T19:26:59.259Z,78.82
2023-01-02T19:28:31.893Z,78.72
2023-01-02T19:31:46.704Z,78.56
2023-01-02T19:33:43.462Z,78.39
2023-01-02T19:35:39.145Z,78.51
2023-01-02T19:37:11.226Z,78.27
2023-01-02T19:38:43.869Z,77.66
2023-01-02T19:40:19.821Z,77.70
2023-01-02T19:42:10.748Z,78.06
2023-01-02T19:43:42.828Z,78.19
2023-01-02T19:45:17.652Z,78.34
2023-01-02T19:46:49.945Z,78.29
2023-01-02T19:48:22.241Z,78.16
2023-01-02T19:49:54.859Z,78.08
2023-01-02T19:51:32.511Z,78.58
2023-01-02T19:53:04.643Z,79.05
2023-01-02T19:54:40.659Z,79.16
2023-01-02T19:56:12.767Z,79.56
2023-01-02T19:57:45.930Z,79.89
2023-01-02T19:59:18.018Z,79.67
2023-01-02T20:00:50.052Z,79.65
2023-01-02T20:02:23.694Z,79.87
2023-01-02T20:03:55.974Z,79.82
2023-01-02T20:05:30.567Z,80.09
2023-01-02T20:07:02.571Z,79.79
2023-01-02T20:08:35.026Z,79.83
2023-01-02T20:10:07.478Z,79.84
2023-01-02T20:12:02.553Z,80.01
2023-01-02T20:13:37.813Z,79.79
2023-01-02T20:15:15.610Z,79.47
2023-01-02T20:16:47.673Z,78.94
2023-01-02T20:18:20.106Z,79.12
2023-01-02T20:19:52.160Z,79.12
2023-01-02T20:21:28.737Z,78.89
2023-01-02T20:23:01.789Z,78.99
2023-01-02T20:24:33.993Z,78.92
2023-01-02T20:26:06.170Z,79.22
2023-01-02T20:27:38.263Z,79.33
2023-01-02T20:29:10.422Z,79.70
2023-01-02T20:30:42.556Z,79.84
2023-01-02T20:32:14.930Z,79.90
2023-01-02T20:33:46.918Z,79.69
2023-01-02T20:35:19.019Z,79.87
2023-01-02T20:36:51.317Z,79.86
2023-01-02T20:38:23.694Z,79.88
2023-01-02T20:39:55.933Z,79.54
2023-01-02T20:41:27.922Z,79.59
2023-01-02T20:42:59.945Z,79.88
2023-01-02T20:44:31.931Z,79.82
2023-01-02T20:46:04.133Z,79.71
2023-01-02T20:47:36.724Z,79.75
2023-01-02T20:49:08.999Z,79.95
2023-01-02T20:50:41.050Z,79.81
2023-01-02T20:52:13.389Z,80.22
2023-01-02T20:53:45.402Z,80.23
2023-01-02T20:55:20.253Z,80.17
2023-01-02T20:56:52.939Z,80.28
2023-01-02T20:58:25.008Z,79.67
2023-01-02T20:59:57.266Z,79.72
2023-01-02T21:01:29.529Z,79.57
2023-01-02T21:03:01.908Z,79.92
2023-01-02T21:15:44.879Z,80.66
2023-01-02T21:17:16.918Z,80.75
2023-01-02T21:18:48.945Z,80.83
2023-01-02T21:20:21.036Z,80.78
2023-01-02T21:21:53.116Z,80.69
2023-01-02T21:23:26.537Z,80.38
2023-01-02T21:24:58.653Z,80.43
2023-01-02T21:26:30.724Z,80.46
2023-01-02T21:28:02.945Z,80.19
2023-01-02T21:29:34.977Z,80.33
2023-01-02T21:31:07.615Z,80.36